sensor_id;sensor_type;location;lat;lon;timestamp;temperature;humidity
45953;DHT22;31662;52.262;10.522;2022-08-21T13:14:33;26.50;59.80
45953;DHT22;31662;52.262;10.522;2022-08-21T13:17:03;26.60;58.80
45953;DHT22;31662;52.262;10.522;2022-08-21T13:19:30;26.60;59.70
45953;DHT22;31662;52.262;10.522;2022-08-21T13:21:57;26.70;60.80
45953;DHT22;31662;52.262;10.522;2022-08-21T13:24:24;26.70;59.90
45953;DHT22;31662;52.262;10.522;2022-08-21T13:26:51;26.70;58.30
45953;DHT22;31662;52.262;10.522;2022-08-21T13:29:20;26.70;59.00
45953;DHT22;31662;52.262;10.522;2022-08-21T13:31:53;26.60;57.40
45953;DHT22;31662;52.262;10.522;2022-08-21T13:34:22;26.50;57.50
45953;DHT22;31662;52.262;10.522;2022-08-21T13:36:52;26.30;57.60
45953;DHT22;31662;52.262;10.522;2022-08-21T13:39:20;26.20;57.70
45953;DHT22;31662;52.262;10.522;2022-08-21T13:41:49;26.20;58.20
45953;DHT22;31662;52.262;10.522;2022-08-21T13:44:22;26.30;57.40
45953;DHT22;31662;52.262;10.522;2022-08-21T13:46:52;26.40;56.00
45953;DHT22;31662;52.262;10.522;2022-08-21T13:49:33;26.40;57.80
45953;DHT22;31662;52.262;10.522;2022-08-21T13:51:59;26.70;58.70
45953;DHT22;31662;52.262;10.522;2022-08-21T13:56:53;27.20;56.90
45953;DHT22;31662;52.262;10.522;2022-08-21T13:59:33;27.40;57.70
45953;DHT22;31662;52.262;10.522;2022-08-21T14:02:10;27.50;55.80
45953;DHT22;31662;52.262;10.522;2022-08-21T14:04:58;27.40;54.10
45953;DHT22;31662;52.262;10.522;2022-08-21T14:07:33;27.00;54.60
45953;DHT22;31662;52.262;10.522;2022-08-21T14:10:04;26.60;55.20
45953;DHT22;31662;52.262;10.522;2022-08-21T14:12:43;26.30;55.70
45953;DHT22;31662;52.262;10.522;2022-08-21T14:15:12;26.10;55.50
45953;DHT22;31662;52.262;10.522;2022-08-21T14:17:40;25.90;55.00
45953;DHT22;31662;52.262;10.522;2022-08-21T14:20:29;25.80;56.20
45953;DHT22;31662;52.262;10.522;2022-08-21T14:22:53;25.70;56.50
45953;DHT22;31662;52.262;10.522;2022-08-21T14:27:59;26.00;57.60
45953;DHT22;31662;52.262;10.522;2022-08-21T14:30:36;26.30;56.50
45953;DHT22;31662;52.262;10.522;2022-08-21T14:33:03;26.40;55.40
45953;DHT22;31662;52.262;10.522;2022-08-21T14:35:30;26.30;55.60
45953;DHT22;31662;52.262;10.522;2022-08-21T14:37:56;26.30;56.20
45953;DHT22;31662;52.262;10.522;2022-08-21T14:40:23;26.40;56.60
45953;DHT22;31662;52.262;10.522;2022-08-21T14:42:50;26.40;56.30
45953;DHT22;31662;52.262;10.522;2022-08-21T14:45:26;26.50;55.10
45953;DHT22;31662;52.262;10.522;2022-08-21T14:47:54;26.50;56.00
45953;DHT22;31662;52.262;10.522;2022-08-21T14:50:19;26.60;56.10
45953;DHT22;31662;52.262;10.522;2022-08-21T14:52:45;26.70;55.80
45953;DHT22;31662;52.262;10.522;2022-08-21T14:55:12;26.60;55.90
45953;DHT22;31662;52.262;10.522;2022-08-21T14:57:49;26.60;55.90
45953;DHT22;31662;52.262;10.522;2022-08-21T15:00:18;26.70;56.20
45953;DHT22;31662;52.262;10.522;2022-08-21T15:02:44;26.80;55.80
45953;DHT22;31662;52.262;10.522;2022-08-21T15:05:11;26.90;55.70
45953;DHT22;31662;52.262;10.522;2022-08-21T15:07:37;26.90;55.40
45953;DHT22;31662;52.262;10.522;2022-08-21T15:10:04;27.00;56.00
45953;DHT22;31662;52.262;10.522;2022-08-21T15:12:29;27.00;55.80
45953;DHT22;31662;52.262;10.522;2022-08-21T15:14:55;27.10;55.70
45953;DHT22;31662;52.262;10.522;2022-08-21T15:17:20;27.10;55.70
45953;DHT22;31662;52.262;10.522;2022-08-21T15:19:46;27.20;55.30
45953;DHT22;31662;52.262;10.522;2022-08-21T15:22:11;27.10;54.00
45953;DHT22;31662;52.262;10.522;2022-08-21T15:24:37;26.90;53.90
45953;DHT22;31662;52.262;10.522;2022-08-21T15:27:03;26.70;54.40
45953;DHT22;31662;52.262;10.522;2022-08-21T15:29:31;26.70;54.70
45953;DHT22;31662;52.262;10.522;2022-08-21T15:32:14;26.60;54.70
45953;DHT22;31662;52.262;10.522;2022-08-21T15:34:40;26.60;54.20
45953;DHT22;31662;52.262;10.522;2022-08-21T15:37:05;26.60;54.10
45953;DHT22;31662;52.262;10.522;2022-08-21T15:39:34;26.60;54.50
45953;DHT22;31662;52.262;10.522;2022-08-21T15:42:00;26.60;54.10
45953;DHT22;31662;52.262;10.522;2022-08-21T15:44:27;26.50;54.60
45953;DHT22;31662;52.262;10.522;2022-08-21T15:46:53;26.50;54.20
45953;DHT22;31662;52.262;10.522;2022-08-21T15:49:18;26.40;54.70
45953;DHT22;31662;52.262;10.522;2022-08-21T15:51:44;26.40;54.20
45953;DHT22;31662;52.262;10.522;2022-08-21T15:54:09;26.20;54.40
45953;DHT22;31662;52.262;10.522;2022-08-21T15:56:38;26.10;54.20
45953;DHT22;31662;52.262;10.522;2022-08-21T15:59:13;25.90;54.50
45953;DHT22;31662;52.262;10.522;2022-08-21T16:01:39;25.80;54.70
45953;DHT22;31662;52.262;10.522;2022-08-21T16:04:05;25.70;55.20
45953;DHT22;31662;52.262;10.522;2022-08-21T16:06:31;25.60;55.40
45953;DHT22;31662;52.262;10.522;2022-08-21T16:08:58;25.40;55.40
45953;DHT22;31662;52.262;10.522;2022-08-21T16:11:23;25.30;55.60
45953;DHT22;31662;52.262;10.522;2022-08-21T16:13:49;25.30;55.70
45953;DHT22;31662;52.262;10.522;2022-08-21T16:16:22;25.30;55.90
45953;DHT22;31662;52.262;10.522;2022-08-21T16:18:50;25.30;55.90
45953;DHT22;31662;52.262;10.522;2022-08-21T16:21:16;25.30;55.90
45953;DHT22;31662;52.262;10.522;2022-08-21T16:23:42;25.40;56.30
45953;DHT22;31662;52.262;10.522;2022-08-21T16:26:09;25.50;56.10
45953;DHT22;31662;52.262;10.522;2022-08-21T16:28:37;25.60;56.10
45953;DHT22;31662;52.262;10.522;2022-08-21T16:31:04;25.60;56.60
45953;DHT22;31662;52.262;10.522;2022-08-21T16:33:37;25.70;55.90
45953;DHT22;31662;52.262;10.522;2022-08-21T16:36:04;25.70;55.80
45953;DHT22;31662;52.262;10.522;2022-08-21T16:38:30;25.70;57.00
45953;DHT22;31662;52.262;10.522;2022-08-21T16:40:58;25.70;57.80
45953;DHT22;31662;52.262;10.522;2022-08-21T16:43:25;25.70;57.70
45953;DHT22;31662;52.262;10.522;2022-08-21T16:45:53;25.60;57.80
45953;DHT22;31662;52.262;10.522;2022-08-21T16:48:19;25.40;57.10
45953;DHT22;31662;52.262;10.522;2022-08-21T16:50:44;25.40;57.10
45953;DHT22;31662;52.262;10.522;2022-08-21T16:53:10;25.40;57.40
45953;DHT22;31662;52.262;10.522;2022-08-21T16:55:36;25.40;57.00
45953;DHT22;31662;52.262;10.522;2022-08-21T16:58:08;25.30;57.00
45953;DHT22;31662;52.262;10.522;2022-08-21T17:00:34;25.30;57.10
45953;DHT22;31662;52.262;10.522;2022-08-21T17:03:00;25.20;57.40
45953;DHT22;31662;52.262;10.522;2022-08-21T17:05:25;25.20;56.80
45953;DHT22;31662;52.262;10.522;2022-08-21T17:07:51;25.10;57.10
45953;DHT22;31662;52.262;10.522;2022-08-21T17:10:17;25.10;57.20
45953;DHT22;31662;52.262;10.522;2022-08-21T17:12:45;25.00;57.30
45953;DHT22;31662;52.262;10.522;2022-08-21T17:15:22;25.00;57.50
45953;DHT22;31662;52.262;10.522;2022-08-21T17:17:48;24.90;57.60
45953;DHT22;31662;52.262;10.522;2022-08-21T17:20:14;24.90;57.80
45953;DHT22;31662;52.262;10.522;2022-08-21T17:22:40;24.90;57.90
45953;DHT22;31662;52.262;10.522;2022-08-21T17:25:06;24.80;57.90
45953;DHT22;31662;52.262;10.522;2022-08-21T17:27:31;24.80;57.90
45953;DHT22;31662;52.262;10.522;2022-08-21T17:29:57;24.80;58.00
45953;DHT22;31662;52.262;10.522;2022-08-21T17:32:23;24.80;57.50
45953;DHT22;31662;52.262;10.522;2022-08-21T17:34:49;24.80;57.60
45953;DHT22;31662;52.262;10.522;2022-08-21T17:37:14;24.80;57.60
45953;DHT22;31662;52.262;10.522;2022-08-21T17:39:40;24.70;57.40
45953;DHT22;31662;52.262;10.522;2022-08-21T17:42:10;24.70;57.90
45953;DHT22;31662;52.262;10.522;2022-08-21T17:44:38;24.60;57.90
45953;DHT22;31662;52.262;10.522;2022-08-21T17:47:06;24.60;58.10
45953;DHT22;31662;52.262;10.522;2022-08-21T17:49:31;24.50;58.20
45953;DHT22;31662;52.262;10.522;2022-08-21T17:51:57;24.40;58.80
45953;DHT22;31662;52.262;10.522;2022-08-21T17:54:25;24.40;59.30
45953;DHT22;31662;52.262;10.522;2022-08-21T17:56:51;24.30;58.80
45953;DHT22;31662;52.262;10.522;2022-08-21T17:59:17;24.30;59.00
45953;DHT22;31662;52.262;10.522;2022-08-21T18:01:44;24.10;59.10
45953;DHT22;31662;52.262;10.522;2022-08-21T18:04:11;24.10;59.20
45953;DHT22;31662;52.262;10.522;2022-08-21T18:06:37;24.10;59.40
45953;DHT22;31662;52.262;10.522;2022-08-21T18:09:03;24.10;59.50
45953;DHT22;31662;52.262;10.522;2022-08-21T18:11:30;24.00;59.50
45953;DHT22;31662;52.262;10.522;2022-08-21T18:13:57;24.00;59.70
45953;DHT22;31662;52.262;10.522;2022-08-21T18:16:29;23.90;59.80
45953;DHT22;31662;52.262;10.522;2022-08-21T18:18:56;23.90;60.20
45953;DHT22;31662;52.262;10.522;2022-08-21T18:21:23;23.80;60.10
45953;DHT22;31662;52.262;10.522;2022-08-21T18:23:49;23.80;60.10
45953;DHT22;31662;52.262;10.522;2022-08-21T18:26:22;23.70;59.90
45953;DHT22;31662;52.262;10.522;2022-08-21T18:28:50;23.60;59.90
45953;DHT22;31662;52.262;10.522;2022-08-21T18:31:15;23.60;59.90
45953;DHT22;31662;52.262;10.522;2022-08-21T18:33:41;23.50;60.20
45953;DHT22;31662;52.262;10.522;2022-08-21T18:36:07;23.40;60.40
45953;DHT22;31662;52.262;10.522;2022-08-21T18:38:32;23.30;60.30
45953;DHT22;31662;52.262;10.522;2022-08-21T18:41:01;23.30;60.60
45953;DHT22;31662;52.262;10.522;2022-08-21T18:43:26;23.20;60.70
45953;DHT22;31662;52.262;10.522;2022-08-21T18:45:52;23.10;60.90
45953;DHT22;31662;52.262;10.522;2022-08-21T18:48:18;23.10;61.00
45953;DHT22;31662;52.262;10.522;2022-08-21T18:50:45;23.00;61.30
45953;DHT22;31662;52.262;10.522;2022-08-21T18:53:12;23.00;61.60
45953;DHT22;31662;52.262;10.522;2022-08-21T18:55:40;22.90;61.70
45953;DHT22;31662;52.262;10.522;2022-08-21T18:58:06;22.90;61.70
45953;DHT22;31662;52.262;10.522;2022-08-21T19:00:35;22.80;61.80
45953;DHT22;31662;52.262;10.522;2022-08-21T19:03:02;22.80;62.00
45953;DHT22;31662;52.262;10.522;2022-08-21T19:05:28;22.70;62.00
45953;DHT22;31662;52.262;10.522;2022-08-21T19:07:55;22.70;62.40
45953;DHT22;31662;52.262;10.522;2022-08-21T19:10:21;22.60;62.70
45953;DHT22;31662;52.262;10.522;2022-08-21T19:12:47;22.60;62.80
45953;DHT22;31662;52.262;10.522;2022-08-21T19:15:15;22.50;62.90
45953;DHT22;31662;52.262;10.522;2022-08-21T19:17:43;22.50;63.10
45953;DHT22;31662;52.262;10.522;2022-08-21T19:20:13;22.40;63.30
45953;DHT22;31662;52.262;10.522;2022-08-21T19:22:39;22.40;63.50
45953;DHT22;31662;52.262;10.522;2022-08-21T19:25:06;22.40;63.70
45953;DHT22;31662;52.262;10.522;2022-08-21T19:27:32;22.30;63.70
45953;DHT22;31662;52.262;10.522;2022-08-21T19:29:58;22.20;63.90
45953;DHT22;31662;52.262;10.522;2022-08-21T19:32:24;22.20;63.80
45953;DHT22;31662;52.262;10.522;2022-08-21T19:34:50;22.20;63.90
45953;DHT22;31662;52.262;10.522;2022-08-21T19:37:15;22.20;64.10
45953;DHT22;31662;52.262;10.522;2022-08-21T19:39:42;22.10;64.00
45953;DHT22;31662;52.262;10.522;2022-08-21T19:42:08;22.10;64.80
45953;DHT22;31662;52.262;10.522;2022-08-21T19:44:34;22.00;64.40
45953;DHT22;31662;52.262;10.522;2022-08-21T19:47:00;22.00;64.60
45953;DHT22;31662;52.262;10.522;2022-08-21T19:49:29;21.90;64.80
45953;DHT22;31662;52.262;10.522;2022-08-21T19:51:55;21.90;65.20
45953;DHT22;31662;52.262;10.522;2022-08-21T19:54:23;21.80;65.30
45953;DHT22;31662;52.262;10.522;2022-08-21T19:56:51;21.80;65.40
45953;DHT22;31662;52.262;10.522;2022-08-21T19:59:17;21.70;65.60
45953;DHT22;31662;52.262;10.522;2022-08-21T20:01:44;21.70;65.80
45953;DHT22;31662;52.262;10.522;2022-08-21T20:04:10;21.70;66.30
45953;DHT22;31662;52.262;10.522;2022-08-21T20:06:36;21.70;66.70
45953;DHT22;31662;52.262;10.522;2022-08-21T20:09:02;21.70;67.00
45953;DHT22;31662;52.262;10.522;2022-08-21T20:11:31;21.60;67.40
45953;DHT22;31662;52.262;10.522;2022-08-21T20:13:59;21.60;67.70
45953;DHT22;31662;52.262;10.522;2022-08-21T20:16:25;21.60;67.80
45953;DHT22;31662;52.262;10.522;2022-08-21T20:18:50;21.50;68.50
45953;DHT22;31662;52.262;10.522;2022-08-21T20:21:16;21.50;68.90
45953;DHT22;31662;52.262;10.522;2022-08-21T20:23:42;21.40;69.10
45953;DHT22;31662;52.262;10.522;2022-08-21T20:26:08;21.40;69.20
45953;DHT22;31662;52.262;10.522;2022-08-21T20:28:34;21.40;69.80
45953;DHT22;31662;52.262;10.522;2022-08-21T20:31:01;21.40;69.80
45953;DHT22;31662;52.262;10.522;2022-08-21T20:33:26;21.30;69.70
45953;DHT22;31662;52.262;10.522;2022-08-21T20:35:52;21.30;70.60
45953;DHT22;31662;52.262;10.522;2022-08-21T20:38:19;21.50;70.90
45953;DHT22;31662;52.262;10.522;2022-08-21T20:40:49;21.60;71.20
45953;DHT22;31662;52.262;10.522;2022-08-21T20:43:15;21.80;71.00
45953;DHT22;31662;52.262;10.522;2022-08-21T20:45:42;21.80;70.50
45953;DHT22;31662;52.262;10.522;2022-08-21T20:48:27;21.90;70.50
45953;DHT22;31662;52.262;10.522;2022-08-21T20:51:01;21.90;70.50
45953;DHT22;31662;52.262;10.522;2022-08-21T20:53:40;21.90;70.60
45953;DHT22;31662;52.262;10.522;2022-08-21T20:56:12;21.90;70.40
45953;DHT22;31662;52.262;10.522;2022-08-21T20:58:49;21.90;70.60
45953;DHT22;31662;52.262;10.522;2022-08-21T21:01:19;21.90;70.60
45953;DHT22;31662;52.262;10.522;2022-08-21T21:04:05;21.90;70.80
45953;DHT22;31662;52.262;10.522;2022-08-21T21:06:34;21.80;70.80
45953;DHT22;31662;52.262;10.522;2022-08-21T21:09:26;21.80;71.10
45953;DHT22;31662;52.262;10.522;2022-08-21T21:11:57;21.80;71.10
45953;DHT22;31662;52.262;10.522;2022-08-21T21:14:36;21.80;71.20
45953;DHT22;31662;52.262;10.522;2022-08-21T21:17:05;21.70;71.10
45953;DHT22;31662;52.262;10.522;2022-08-21T21:19:52;21.70;71.20
45953;DHT22;31662;52.262;10.522;2022-08-21T21:22:31;21.70;71.50
45953;DHT22;31662;52.262;10.522;2022-08-21T21:25:20;21.70;71.50
45953;DHT22;31662;52.262;10.522;2022-08-21T21:27:56;21.60;71.60
45953;DHT22;31662;52.262;10.522;2022-08-21T21:30:29;21.60;71.80
45953;DHT22;31662;52.262;10.522;2022-08-21T21:32:55;21.60;72.10
45953;DHT22;31662;52.262;10.522;2022-08-21T21:35:25;21.50;72.20
45953;DHT22;31662;52.262;10.522;2022-08-21T21:37:59;21.50;72.30
45953;DHT22;31662;52.262;10.522;2022-08-21T21:41:20;21.40;72.40
45953;DHT22;31662;52.262;10.522;2022-08-21T21:49:33;21.30;73.50
45953;DHT22;31662;52.262;10.522;2022-08-21T21:52:06;21.20;73.80
45953;DHT22;31662;52.262;10.522;2022-08-21T21:55:04;21.10;73.70
45953;DHT22;31662;52.262;10.522;2022-08-21T21:57:49;21.00;73.70
45953;DHT22;31662;52.262;10.522;2022-08-21T22:00:20;21.00;73.90
45953;DHT22;31662;52.262;10.522;2022-08-21T22:03:22;20.90;73.80
45953;DHT22;31662;52.262;10.522;2022-08-21T22:06:08;20.80;73.90
45953;DHT22;31662;52.262;10.522;2022-08-21T22:08:47;20.80;74.10
45953;DHT22;31662;52.262;10.522;2022-08-21T22:14:17;20.70;73.90
45953;DHT22;31662;52.262;10.522;2022-08-21T22:16:45;20.40;74.50
45953;DHT22;31662;52.262;10.522;2022-08-21T22:19:23;20.40;75.30
45953;DHT22;31662;52.262;10.522;2022-08-21T22:24:31;20.10;75.30
45953;DHT22;31662;52.262;10.522;2022-08-21T22:27:03;20.00;75.80
45953;DHT22;31662;52.262;10.522;2022-08-21T22:32:25;19.70;77.00
45953;DHT22;31662;52.262;10.522;2022-08-21T22:37:33;19.50;76.90
45953;DHT22;31662;52.262;10.522;2022-08-21T22:39:59;19.40;76.90
45953;DHT22;31662;52.262;10.522;2022-08-21T22:42:25;19.40;77.90
45953;DHT22;31662;52.262;10.522;2022-08-21T22:44:57;19.40;78.10
45953;DHT22;31662;52.262;10.522;2022-08-21T22:47:33;19.40;78.10
45953;DHT22;31662;52.262;10.522;2022-08-21T22:50:00;19.40;79.00
45953;DHT22;31662;52.262;10.522;2022-08-21T22:52:32;19.40;79.30
45953;DHT22;31662;52.262;10.522;2022-08-21T22:55:17;19.30;79.60
45953;DHT22;31662;52.262;10.522;2022-08-21T22:57:45;19.20;79.90
45953;DHT22;31662;52.262;10.522;2022-08-21T23:00:13;19.20;80.10
45953;DHT22;31662;52.262;10.522;2022-08-21T23:07:53;19.60;80.40
45953;DHT22;31662;52.262;10.522;2022-08-21T23:10:38;19.50;80.20
45953;DHT22;31662;52.262;10.522;2022-08-21T23:13:12;19.60;80.30
45953;DHT22;31662;52.262;10.522;2022-08-21T23:16:26;19.50;80.20
45953;DHT22;31662;52.262;10.522;2022-08-21T23:22:33;19.30;80.10
45953;DHT22;31662;52.262;10.522;2022-08-21T23:25:27;19.10;80.70
45953;DHT22;31662;52.262;10.522;2022-08-21T23:28:20;19.10;81.20
45953;DHT22;31662;52.262;10.522;2022-08-21T23:31:14;19.10;81.80
45953;DHT22;31662;52.262;10.522;2022-08-21T23:33:59;19.20;81.50
45953;DHT22;31662;52.262;10.522;2022-08-21T23:39:48;19.30;81.80
45953;DHT22;31662;52.262;10.522;2022-08-21T23:42:34;19.30;82.10
45953;DHT22;31662;52.262;10.522;2022-08-21T23:48:06;18.90;83.50
45953;DHT22;31662;52.262;10.522;2022-08-21T23:50:55;18.80;83.70
45953;DHT22;31662;52.262;10.522;2022-08-21T23:53:36;18.80;84.50
45953;DHT22;31662;52.262;10.522;2022-08-21T23:59:14;19.00;84.20
